Terminal Aerodrome Forecast
Issued by NWS Cleveland, OH

Home | Current Version | Previous Version | Graphics & Text | Print | Product List | Glossary On
Versions: 1 2 3 4 5 6 7 8 9 10 11 12 13 14 15 16 17 18 19 20 21 22 23 24 25
000
FTUS41 KCLE 282339
TAFCLE
TAF
KCLE 282339Z 2900/3006 05006KT P6SM BKN250
     FM290200 16004KT P6SM BKN250
     FM291500 22007KT P6SM SCT050 BKN150
     FM291800 29007KT P6SM SCT060 BKN150
     FM300300 17003KT P6SM VCSH BKN080=

USA.gov is the U.S. government's official web portal to all federal, state and local government web resources and services.